Terminal Aerodrome Forecast
Issued by NWS Blacksburg, VA

Home | Current Version | Previous Version | Text Only | Print | Product List | Glossary On
Versions: 1 2 3 4 5 6 7 8 9 10 11 12 13 14 15 16
000
FTUS41 KRNK 232321
TAFLYH
TAF
KLYH 232321Z 2400/2424 05008KT P6SM -RA OVC080
      TEMPO 2401/2403 4SM -RA OVC040
     FM240300 05009KT 4SM RA OVC015
     FM240900 05012KT 2SM RA BR OVC010
     FM241200 04012KT 4SM SHRA OVC010
     FM241600 04012KT 4SM SHRA OVC008=

USA.gov is the U.S. government's official web portal to all federal, state and local government web resources and services.